Weather History for KSOP - March, 2012

Change the Weather History Date:

Tuesday, March 6, 2012

  Actual Average Record
Temperature  
Mean Temperature 37 °F -  
Max Temperature 53 °F 57 °F 73 °F (2004)
Min Temperature 21 °F 36 °F 21 °F (2012)
Degree Days  
Heating Degree Days 28    
Moisture  
Dew Point 19 °F    
Average Humidity 50    
Maximum Humidity 80    
Minimum Humidity 24    
Precipitation  
Precipitation 0.00 in - - ()
Sea Level Pressure  
Sea Level Pressure 30.60 in    
Wind  
Wind Speed 2 mph (ESE)    
Max Wind Speed 9 mph    
Max Gust Speed -    
Visibility 10 miles    
Events      
Averages and records for this station are not official NWS values.
T = Trace of Precipitation, MM = Missing Value Source: NWS Daily Summary

Daily Weather History Graph

Daily Weather History Graph

Search for Another Location

Airport or City:

Trip Planner

Search our weather history database for the weather conditions in past years. The results will help you decide how hot, cold, wet, or windy it might be!

Date:

Astronomy

Mar. 06, 2012 Rise Set
Actual Time 6:39 AM EST 6:17 PM EST
Civil Twilight 6:14 AM EST 6:43 PM EST
Nautical Twilight 5:45 AM EST 7:12 PM EST
Astronomical Twilight 5:15 AM EST 7:42 PM EST
Moon 4:44 PM EST (3/6) 5:11 AM EST (3/6)
Length of Visible Light 12h 28m
Length of Day
11h 38m
Waxing Gibbous, 96% of the Moon is Illuminated
Mar 6
Waxing Gibbous
Mar 8
Full
Mar 14
Last Quarter
Mar 22
New
Mar 30
First Quarter

Hourly Weather History & Observations

Time (EST) Temp. Windchill Dew Point Humidity Pressure Visibility Wind Dir Wind Speed Gust Speed Precip Events Conditions
12:15 AM 32.0 °F - 15.8 °F 51% 30.51 in 10.0 mi Calm Calm - N/A   Clear
12:35 AM 30.2 °F - 14.0 °F 51% 30.51 in 10.0 mi Calm Calm - N/A   Clear
12:55 AM 26.6 °F - 14.0 °F 59% 30.52 in 10.0 mi Calm Calm - N/A   Clear
1:15 AM 28.4 °F - 15.8 °F 59% 30.52 in 10.0 mi Calm Calm - N/A   Clear
1:35 AM 26.6 °F - 15.8 °F 64% 30.52 in 10.0 mi Calm Calm - N/A   Clear
1:55 AM 26.6 °F - 15.8 °F 64% 30.52 in 10.0 mi Calm Calm - N/A   Clear
2:15 AM 26.6 °F - 15.8 °F 64% 30.52 in 10.0 mi Calm Calm - N/A   Clear
2:35 AM 26.6 °F - 15.8 °F 64% 30.53 in 10.0 mi Calm Calm - N/A   Clear
2:55 AM 24.8 °F - 15.8 °F 69% 30.53 in 10.0 mi Calm Calm - N/A   Clear
3:15 AM 26.6 °F - 17.6 °F 69% 30.53 in 10.0 mi Calm Calm - N/A   Clear
3:35 AM 24.8 °F - 15.8 °F 69% 30.53 in 10.0 mi Calm Calm - N/A   Clear
3:55 AM 24.8 °F - 17.6 °F 74% 30.54 in 10.0 mi Calm Calm - N/A   Clear
4:15 AM 24.8 °F - 15.8 °F 69% 30.55 in 10.0 mi Calm Calm - N/A   Clear
4:35 AM 24.8 °F - 17.6 °F 74% 30.56 in 10.0 mi Calm Calm - N/A   Clear
4:55 AM 24.8 °F - 17.6 °F 74% 30.57 in 10.0 mi Calm Calm - N/A   Clear
5:15 AM 23.0 °F - 17.6 °F 80% 30.58 in 10.0 mi Calm Calm - N/A   Clear
5:35 AM 24.8 °F - 15.8 °F 69% 30.59 in 10.0 mi Calm Calm - N/A   Clear
5:55 AM 24.8 °F - 17.6 °F 74% 30.60 in 10.0 mi Calm Calm - N/A   Clear
6:15 AM 21.2 °F - 15.8 °F 80% 30.60 in 10.0 mi Calm Calm - N/A   Clear
6:35 AM 24.8 °F - 17.6 °F 74% 30.60 in 10.0 mi Calm Calm - N/A   Clear
6:55 AM 23.0 °F - 15.8 °F 74% 30.61 in 10.0 mi Calm Calm - N/A   Clear
7:35 AM 28.4 °F - 21.2 °F 74% 30.63 in 10.0 mi Calm Calm - N/A   Clear
7:55 AM 30.2 °F - 21.2 °F 69% 30.65 in 10.0 mi Calm Calm - N/A   Clear
8:15 AM 33.8 °F - 21.2 °F 60% 30.66 in 10.0 mi Calm Calm - N/A   Clear
8:35 AM 35.6 °F 32.8 °F 21.2 °F 56% 30.67 in 10.0 mi ENE 3.5 mph - N/A   Clear
8:55 AM 37.4 °F 32.1 °F 23.0 °F 56% 30.67 in 10.0 mi ENE 6.9 mph - N/A   Clear
9:15 AM 39.2 °F 33.6 °F 21.2 °F 49% 30.67 in 10.0 mi East 8.1 mph - N/A   Clear
9:35 AM 41.0 °F 35.8 °F 21.2 °F 45% 30.67 in 10.0 mi East 8.1 mph - N/A   Clear
9:55 AM 42.8 °F 38.0 °F 19.4 °F 39% 30.67 in 10.0 mi ENE 8.1 mph - N/A   Clear
10:15 AM 44.6 °F 40.7 °F 19.4 °F 37% 30.67 in 10.0 mi East 6.9 mph - N/A   Clear
10:35 AM 44.6 °F - 19.4 °F 37% 30.67 in 10.0 mi Calm Calm - N/A   Clear
10:55 AM 44.6 °F 43.1 °F 19.4 °F 37% 30.67 in 10.0 mi SE 3.5 mph - N/A   Clear
11:15 AM 46.4 °F 43.5 °F 19.4 °F 34% 30.67 in 10.0 mi SSE 5.8 mph - N/A   Clear
11:35 AM 46.4 °F 45.2 °F 19.4 °F 34% 30.67 in 10.0 mi East 3.5 mph - N/A   Clear
11:55 AM 48.2 °F - 19.4 °F 32% 30.66 in 10.0 mi SE 5.8 mph - N/A   Clear
12:15 PM 48.2 °F - 17.6 °F 30% 30.66 in 10.0 mi ENE 3.5 mph - N/A   Clear
12:35 PM 50.0 °F - 19.4 °F 30% 30.64 in 10.0 mi ESE 6.9 mph - N/A   Clear
12:55 PM 50.0 °F - 17.6 °F 28% 30.64 in 10.0 mi SE 6.9 mph - N/A   Clear
1:15 PM 51.8 °F - 19.4 °F 28% 30.62 in 10.0 mi ENE 9.2 mph - N/A   Clear
1:55 PM 51.8 °F - 17.6 °F 26% 30.61 in 10.0 mi SE 4.6 mph - N/A   Clear
2:35 PM 53.6 °F - 17.6 °F 24% 30.60 in 9.0 mi East 5.8 mph - N/A   Scattered Clouds
2:55 PM 53.6 °F - 19.4 °F 26% 30.59 in 10.0 mi East 6.9 mph - N/A   Partly Cloudy
3:15 PM 53.6 °F - 19.4 °F 26% 30.59 in 10.0 mi South 5.8 mph - N/A   Clear
3:35 PM 53.6 °F - 19.4 °F 26% 30.59 in 10.0 mi SSE 8.1 mph - N/A   Clear
3:55 PM 53.6 °F - 19.4 °F 26% 30.59 in 10.0 mi ESE 5.8 mph - N/A   Clear
4:15 PM 53.6 °F - 19.4 °F 26% 30.59 in 10.0 mi SE 4.6 mph - N/A   Clear
4:35 PM 53.6 °F - 19.4 °F 26% 30.59 in 10.0 mi SSE 6.9 mph - N/A   Clear
5:15 PM 53.6 °F - 19.4 °F 26% 30.59 in 10.0 mi South 6.9 mph - N/A   Clear
5:35 PM 51.8 °F - 21.2 °F 30% 30.58 in 10.0 mi South 3.5 mph - N/A   Clear
5:55 PM 51.8 °F - 21.2 °F 30% 30.59 in 10.0 mi Calm Calm - N/A   Clear
6:15 PM 50.0 °F - 21.2 °F 32% 30.59 in 10.0 mi Calm Calm - N/A   Clear
6:35 PM 48.2 °F - 21.2 °F 34% 30.59 in 10.0 mi Calm Calm - N/A   Clear
6:55 PM 46.4 °F - 23.0 °F 40% 30.59 in 10.0 mi Calm Calm - N/A   Clear
7:55 PM 39.2 °F - 26.6 °F 61% 30.60 in 10.0 mi Calm Calm - N/A   Clear
8:35 PM 37.4 °F - 24.8 °F 60% 30.61 in 10.0 mi Calm Calm - N/A   Clear
8:55 PM 37.4 °F - 24.8 °F 60% 30.62 in 10.0 mi Calm Calm - N/A   Clear
9:15 PM 37.4 °F - 24.8 °F 60% 30.63 in 10.0 mi Calm Calm - N/A   Clear
9:35 PM 39.2 °F 35.0 °F 26.6 °F 61% 30.65 in 10.0 mi SSW 5.8 mph - N/A   Clear
10:15 PM 42.8 °F 37.5 °F 30.2 °F 61% 30.65 in 10.0 mi SSW 9.2 mph - N/A   Clear
10:35 PM 42.8 °F 37.5 °F 30.2 °F 61% 30.66 in 10.0 mi SSW 9.2 mph - N/A   Clear
10:55 PM 42.8 °F 38.6 °F 30.2 °F 61% 30.67 in 10.0 mi SSW 6.9 mph - N/A   Clear
11:15 PM 42.8 °F 38.6 °F 30.2 °F 61% 30.66 in 10.0 mi SSW 6.9 mph - N/A   Clear